Pagina principală
METAR-TAF:

METAR-TAF

Aeroporturi :

Shreveport, Louisiana, Statele Unite ale Americii

Latitudine: 32-32-33N, longitudine: 093-44-41W, elevație: 54 m

Observații meteo curente

Raportul a fost făcut în urmă cu 43 de minute, la 20:53 UTC
Vânt calm
Temperatură 34°C
Umiditate 47%
Presiune 1016 hPa
Vizibilitate: 16.1 km
Nori fragmentați la o înălțime de 6000 picior
Nori fragmentați la o înălțime de 9000 picior

METAR: KDTN 222053Z 00000KT 10SM BKN060 BKN090 34/21 A2999 RMK AO2 SLP151 T03440211 56022

Ora: 16:36 (21:36 UTC)


TAF: lipsă

Observații și prognoze meteo pentru peste 4.000 de aeroporturi (rapoarte METAR și TAF).

Stațiile disponibile sunt reprezentate pe hartă prin puncte galbene și roșii.

Țineți indicatorul mouse-ului pe punctul dorit pentru a vedea denumirea stației.

Apoi, faceți clic pentru a vedea observațiile și prognozele meteorologice.

Pentru a schimba harta: Pentru mărire, faceți clic pe butoanele verzi cu cruce neagră; pentru micșorare, pe butonul verde cu o liniuță; pentru hărți învecinate, pe săgețile verzi.


METAR-TAF: